Pagina principale
METAR-TAF:

METAR-TAF

Aeroporti :

Aeroporto di Bastia Poretta

Bastia, Francia

latitudine: 42-33N, longitudine: 009-29E, altezza: 8 m

Osservazione

Il bollettino è stato emesso 37 minuti fa, alle 23:30 UTC
Vento 3 kt da sud/sud-ovest
Temperature 12°C
Umidità 94%
Pressione 1010 hPa
Visibilità 10 km o più
nessuna nube inferiore a 1500 m e nessun cumulonembo

METAR: LFKB 152330Z AUTO 21003KT CAVOK 12/11 Q1010 NOSIG

Ora: 02:07 (00:07 UTC)

Previsione

Il bollettino è stato emesso 4 ore e 7 minuti fa, alle 20:00 UTC
Previsione valida dal 15 alle 21 UTC al 16 alle 21 UTC
Vento 4 kt da ovest/sud-ovest
Visibilità 10 km o più
Nubi sparse ad un'altezza di 9000 ft
Nuvoloso ad un'altezza di 20000 ft
Evoluzione graduale
dal 16 alle 11 UTC al 16 alle 13 UTC
Vento 8 kt da nord/nord-est

TAF: LFKB 152000Z 1521/1621 24004KT 9999 SCT090 BKN200 TX22/1612Z TN12/1604Z BECMG 1611/1613 03008KT

Osservazioni e previsioni meteorologiche di più di 4000 aeroporti (messaggi METAR e TAF).

Le stazioni disponibili sono rappresentate dai dischi gialli e rossi sulla carta.

Puntare il mouse per vedere il nome della stazione.

Clicca sopra per visualizzare le osservazioni e previsioni meteorologiche.

Per cambiare la mappa : fare clic sui pulsanti verdi con una croce nera per ingrandire, il pulsante verde con un trattino per diminuire, o sulla freccia verde per le mappe adiacenti.


METAR-TAF: